CheckWX is a tool to help pilots better visualize weather data.  It is not intended as a substitute for an official pre-flight weather briefing.

07:31:08 UTC

KLPC METAR
Lompoc Airport
Lompoc, California, USA
Current

35 mins ago

KLPC 260656Z AUTO 10006KT 10SM CLR 10/04 A3027 RMK AO2 SLP252 T01000039
Observed
Feb-26 @ 06:56 UTC
Wind
  • 100° at 6 KTS
Visibility
10 SM
Flight Rules
VFR
Cloud Levels
  • Clear skies
Temperature
10°C / 50°F
Dewpoint
C / 39°F
Humidity
67%
Altimeter
30.27" Hg
Pressure
1025.02 hPa
Previous

2 hours ago

KLPC 260556Z AUTO 00000KT 10SM CLR 09/03 A3027 RMK AO2 SLP253 T00940033 10228 20089 52014
Observed
Feb-26 @ 05:56 UTC
Visibility
10 SM
Flight Rules
VFR
Cloud Levels
  • Clear skies
Temperature
C / 48°F
Dewpoint
C / 37°F
Humidity
66%
Altimeter
30.27" Hg
Pressure
1025.02 hPa
Previous

3 hours ago

KLPC 260456Z AUTO 07004KT 10SM CLR 11/04 A3026 RMK AO2 SLP250 T01060039
Observed
Feb-26 @ 04:56 UTC
Wind
  • 070° at 4 KTS
Visibility
10 SM
Flight Rules
VFR
Cloud Levels
  • Clear skies
Temperature
11°C / 52°F
Dewpoint
C / 39°F
Humidity
62%
Altimeter
30.26" Hg
Pressure
1024.72 hPa